Chauncey, Georgia
Current Conditions -  °F | °C
As of 1:15 AM on Friday 19 Dec 2014 (Local Time) from KEZM Reporting Station
Overcast Overcast  
Wind Chill: 44°   Ceiling: 12000
Heat Index: 44°   Visibility: 10mi
Dew Point: 38°   Wind: 0mph
Humidity: 79%   Direction: NA
Pressure: 30.16"   Gusts: NA
Location:  32.1°N, 83.06°W
Report Text: KEZM 190615Z AUTO 00000KT 10SM OVC120 07/04 A3016 RMK AO2 T00690035
Loading
Personal Weather Stations






























Interactive Weather Map New forecast layout! Learn more

10-Day Weather Forecast

Advertisements
Track Severe Weather on mobile